createdAt,value
2019-05-23T00:01:34.227Z,96084.00
2019-05-23T00:04:14.955Z,96088.00
2019-05-23T00:06:49.103Z,96089.00
2019-05-23T00:09:21.920Z,96090.00
2019-05-23T00:12:12.676Z,96075.00
2019-05-23T00:14:53.630Z,96078.00
2019-05-23T00:17:32.194Z,96084.00
2019-05-23T00:20:07.417Z,96078.00
2019-05-23T00:22:40.820Z,96083.00
2019-05-23T00:25:14.408Z,96081.00
2019-05-23T00:27:48.135Z,96077.00
2019-05-23T00:30:38.200Z,96079.00
2019-05-23T00:33:13.141Z,96077.00
2019-05-23T00:35:46.697Z,96073.00
2019-05-23T00:38:19.583Z,96078.00
2019-05-23T00:40:53.322Z,96080.00
2019-05-23T00:43:27.586Z,96081.00
2019-05-23T00:46:07.000Z,96076.00
2019-05-23T00:48:40.835Z,96063.00
2019-05-23T00:51:19.411Z,96076.00
2019-05-23T00:53:52.871Z,96083.00
2019-05-23T00:56:27.741Z,96080.00
2019-05-23T00:59:01.490Z,96080.00
2019-05-23T01:01:34.053Z,96083.00
2019-05-23T01:04:06.828Z,96076.00
2019-05-23T01:06:39.199Z,96080.00
2019-05-23T01:09:12.118Z,96078.00
2019-05-23T01:11:47.362Z,96082.00
2019-05-23T01:14:21.963Z,96073.00
2019-05-23T01:16:54.592Z,96078.00
2019-05-23T01:19:27.772Z,96073.00
2019-05-23T01:22:03.944Z,96073.00
2019-05-23T01:24:50.303Z,96081.00
2019-05-23T01:27:22.430Z,96079.00
2019-05-23T01:29:56.323Z,96086.00
2019-05-23T01:32:40.503Z,96078.00
2019-05-23T01:35:14.837Z,96080.00
2019-05-23T01:37:48.651Z,96079.00
2019-05-23T01:40:21.794Z,96082.00
2019-05-23T01:42:54.165Z,96080.00
2019-05-23T01:45:26.897Z,96073.00
2019-05-23T01:47:59.134Z,96084.00
2019-05-23T01:50:31.171Z,96085.00
2019-05-23T01:53:03.480Z,96074.00
2019-05-23T01:55:35.475Z,96081.00
2019-05-23T01:58:07.858Z,96076.00
2019-05-23T02:00:41.901Z,96076.00
2019-05-23T02:03:16.017Z,96079.00
2019-05-23T02:05:50.003Z,96076.00
2019-05-23T02:08:22.588Z,96076.00
2019-05-23T02:10:55.094Z,96074.00
2019-05-23T02:13:27.392Z,96077.00
2019-05-23T02:16:00.978Z,96080.00
2019-05-23T02:18:34.056Z,96075.00
2019-05-23T02:21:07.698Z,96079.00
2019-05-23T02:23:40.214Z,96076.00
2019-05-23T02:26:12.799Z,96073.00
2019-05-23T02:28:45.195Z,96074.00
2019-05-23T02:31:21.241Z,96070.00
2019-05-23T02:33:53.525Z,96069.00
2019-05-23T02:36:26.029Z,96067.00
2019-05-23T02:39:20.631Z,96067.00
2019-05-23T02:42:15.657Z,96071.00
2019-05-23T02:44:51.312Z,96074.00
2019-05-23T02:47:34.233Z,96073.00
2019-05-23T02:50:07.539Z,96068.00
2019-05-23T02:52:46.609Z,96056.00
2019-05-23T02:55:31.964Z,96061.00
2019-05-23T02:58:26.271Z,96064.00
2019-05-23T03:01:43.103Z,96065.00
2019-05-23T03:04:18.040Z,96067.00
2019-05-23T03:06:51.949Z,96074.00
2019-05-23T03:09:27.397Z,96062.00
2019-05-23T03:12:04.025Z,96058.00
2019-05-23T03:14:38.275Z,96064.00
2019-05-23T03:17:14.144Z,96052.00
2019-05-23T03:19:56.988Z,96065.00
2019-05-23T03:22:40.198Z,96068.00
2019-05-23T03:26:06.060Z,96064.00
2019-05-23T03:28:42.580Z,96066.00
2019-05-23T03:31:38.608Z,96058.00
2019-05-23T03:34:20.561Z,96058.00
2019-05-23T03:36:58.367Z,96064.00
2019-05-23T03:39:33.830Z,96073.00
2019-05-23T03:42:07.705Z,96071.00
2019-05-23T04:05:52.959Z,96075.00
2019-05-23T04:09:12.579Z,96064.00
2019-05-23T04:12:30.600Z,96063.00
2019-05-23T04:15:19.735Z,96063.00
2019-05-23T04:18:49.117Z,96062.00
2019-05-23T04:21:38.649Z,96067.00
2019-05-23T04:24:37.731Z,96071.00
2019-05-23T04:27:44.175Z,96064.00
2019-05-23T04:30:52.549Z,96056.00
2019-05-23T04:38:24.213Z,96063.00
2019-05-23T04:41:39.373Z,96072.00
2019-05-23T04:48:05.364Z,96068.00
2019-05-23T04:50:55.270Z,96063.00
2019-05-23T04:54:07.665Z,96063.00
2019-05-23T04:56:39.799Z,96077.00
2019-05-23T04:59:11.670Z,96062.00
2019-05-23T05:01:43.901Z,96062.00
2019-05-23T05:04:16.215Z,96069.00
2019-05-23T05:06:48.571Z,96067.00
2019-05-23T05:09:32.180Z,96061.00
2019-05-23T05:12:05.057Z,96069.00
2019-05-23T05:14:37.573Z,96066.00
2019-05-23T05:17:11.575Z,96071.00
2019-05-23T05:19:44.028Z,96073.00
2019-05-23T05:22:16.791Z,96071.00
2019-05-23T05:24:49.359Z,96072.00
2019-05-23T05:27:23.195Z,96082.00
2019-05-23T05:29:55.758Z,96077.00
2019-05-23T05:32:43.146Z,96078.00
2019-05-23T05:35:01.586Z,96074.00
2019-05-23T05:37:33.631Z,96078.00
2019-05-23T05:40:08.400Z,96081.00
2019-05-23T05:42:41.834Z,96078.00
2019-05-23T05:45:15.021Z,96068.00
2019-05-23T05:47:47.139Z,96070.00
2019-05-23T05:50:19.757Z,96064.00
2019-05-23T05:52:52.019Z,96069.00
2019-05-23T05:55:24.127Z,96073.00
2019-05-23T05:57:56.173Z,96072.00
2019-05-23T06:00:45.626Z,96067.00
2019-05-23T06:03:17.654Z,96078.00
2019-05-23T06:05:56.600Z,96061.00
2019-05-23T06:08:29.085Z,96066.00
2019-05-23T06:11:01.670Z,96066.00
2019-05-23T06:13:34.257Z,96075.00
2019-05-23T06:16:06.198Z,96074.00
2019-05-23T06:18:38.594Z,96077.00
2019-05-23T06:21:12.638Z,96066.00
2019-05-23T06:23:45.066Z,96076.00
2019-05-23T06:26:17.585Z,96066.00
2019-05-23T06:28:50.020Z,96068.00
2019-05-23T06:31:23.410Z,96059.00
2019-05-23T06:33:55.813Z,96054.00
2019-05-23T06:36:28.162Z,96051.00
2019-05-23T06:39:00.535Z,96054.00
2019-05-23T06:41:33.111Z,96052.00
2019-05-23T06:44:05.845Z,96051.00
2019-05-23T06:46:37.940Z,96055.00
2019-05-23T06:49:10.502Z,96051.00
2019-05-23T06:51:43.317Z,96046.00
2019-05-23T06:54:15.784Z,96042.00
2019-05-23T06:56:48.229Z,96042.00
2019-05-23T06:59:20.411Z,96048.00
2019-05-23T07:01:52.570Z,96038.00
2019-05-23T07:04:25.051Z,96045.00
2019-05-23T07:06:56.931Z,96040.00
2019-05-23T07:09:29.280Z,96043.00
2019-05-23T07:12:01.952Z,96037.00
2019-05-23T07:14:34.670Z,96044.00
2019-05-23T07:17:06.723Z,96040.00
2019-05-23T07:19:39.703Z,96045.00
2019-05-23T07:22:12.622Z,96041.00
2019-05-23T07:24:57.643Z,96038.00
2019-05-23T07:27:18.782Z,96046.00
2019-05-23T07:29:51.238Z,96044.00
2019-05-23T07:32:23.633Z,96041.00
2019-05-23T07:34:56.138Z,96047.00
2019-05-23T07:37:28.975Z,96041.00
2019-05-23T07:40:00.973Z,96042.00
2019-05-23T07:42:33.404Z,96041.00
2019-05-23T07:45:07.265Z,96047.00
2019-05-23T07:47:40.321Z,96046.00
2019-05-23T07:50:13.867Z,96042.00
2019-05-23T07:52:46.489Z,96045.00
2019-05-23T07:55:43.455Z,96034.00
2019-05-23T07:58:17.410Z,96052.00
2019-05-23T08:00:54.816Z,96038.00
2019-05-23T08:03:30.042Z,96041.00
2019-05-23T08:06:05.179Z,96041.00
2019-05-23T08:08:40.531Z,96040.00
2019-05-23T08:11:12.427Z,96038.00
2019-05-23T08:13:44.390Z,96045.00
2019-05-23T08:16:16.919Z,96041.00
2019-05-23T08:18:49.117Z,96036.00
2019-05-23T08:21:22.230Z,96035.00
2019-05-23T08:23:54.546Z,96033.00
2019-05-23T08:26:27.898Z,96029.00
2019-05-23T08:29:24.131Z,96040.00
2019-05-23T08:31:33.572Z,96038.00
2019-05-23T08:34:06.364Z,96027.00
2019-05-23T08:36:38.396Z,96033.00
2019-05-23T08:39:10.880Z,96029.00
2019-05-23T08:41:43.776Z,96022.00
2019-05-23T08:44:15.963Z,96029.00
2019-05-23T08:46:47.914Z,96025.00
2019-05-23T08:49:21.256Z,96025.00
2019-05-23T08:51:54.000Z,96022.00
2019-05-23T08:54:26.427Z,96024.00
2019-05-23T08:56:58.744Z,96017.00
2019-05-23T08:59:31.724Z,96025.00
2019-05-23T09:02:04.590Z,96030.00
2019-05-23T09:04:36.526Z,96024.00
2019-05-23T09:07:10.420Z,96033.00
2019-05-23T09:09:43.517Z,96026.00
2019-05-23T09:12:15.425Z,96025.00
2019-05-23T09:14:47.902Z,96016.00
2019-05-23T09:17:20.431Z,96023.00
2019-05-23T09:19:52.386Z,96012.00
2019-05-23T09:22:24.977Z,96018.00
2019-05-23T09:24:57.144Z,96016.00
2019-05-23T09:27:29.236Z,96029.00
2019-05-23T09:30:01.220Z,96006.00
2019-05-23T09:32:33.911Z,96021.00
2019-05-23T09:35:20.068Z,96016.00
2019-05-23T09:37:40.753Z,96020.00
2019-05-23T09:40:13.266Z,96017.00
2019-05-23T09:42:45.165Z,96014.00
2019-05-23T09:45:18.456Z,96018.00
2019-05-23T09:47:51.542Z,96012.00
2019-05-23T09:50:24.568Z,96012.00
2019-05-23T09:52:56.773Z,96012.00
2019-05-23T09:55:29.331Z,96009.00
2019-05-23T09:58:01.552Z,96008.00
2019-05-23T10:00:35.317Z,96007.00
2019-05-23T10:03:07.265Z,96003.00
2019-05-23T10:05:43.324Z,96011.00
2019-05-23T10:08:13.119Z,96014.00
2019-05-23T10:10:45.651Z,96006.00
2019-05-23T10:13:18.299Z,96006.00
2019-05-23T10:15:58.992Z,96004.00
2019-05-23T10:18:30.885Z,95998.00
2019-05-23T10:21:03.125Z,95997.00
2019-05-23T10:23:36.228Z,95995.00
2019-05-23T10:26:08.212Z,95998.00
2019-05-23T10:28:40.730Z,95998.00
2019-05-23T10:31:14.001Z,96012.00
2019-05-23T10:33:45.892Z,96012.00
2019-05-23T10:36:17.748Z,96000.00
2019-05-23T10:38:49.685Z,96003.00
2019-05-23T10:41:21.556Z,95993.00
2019-05-23T10:43:53.727Z,95999.00
2019-05-23T10:46:25.772Z,95997.00
2019-05-23T10:48:57.658Z,95986.00
2019-05-23T10:51:29.514Z,95986.00
2019-05-23T10:54:01.739Z,95984.00
2019-05-23T10:56:33.591Z,95980.00
2019-05-23T10:59:05.754Z,95984.00
2019-05-23T11:01:38.073Z,95972.00
2019-05-23T11:04:10.082Z,95971.00
2019-05-23T11:06:43.019Z,95971.00
2019-05-23T11:09:15.677Z,95959.00
2019-05-23T11:11:47.772Z,95961.00
2019-05-23T11:14:20.120Z,95955.00
2019-05-23T11:16:53.793Z,95955.00
2019-05-23T11:19:25.700Z,95955.00
2019-05-23T11:21:57.521Z,95964.00
2019-05-23T11:24:29.767Z,95960.00
2019-05-23T11:27:01.616Z,95959.00
2019-05-23T11:29:34.567Z,95959.00
2019-05-23T11:32:08.210Z,95956.00
2019-05-23T11:34:40.377Z,95952.00
2019-05-23T11:37:12.489Z,95948.00
2019-05-23T11:39:49.533Z,95942.00
2019-05-23T11:42:19.779Z,95942.00
2019-05-23T11:44:52.051Z,95942.00
2019-05-23T11:47:24.249Z,95944.00
2019-05-23T11:49:56.573Z,95933.00
2019-05-23T11:52:28.706Z,95943.00
2019-05-23T11:55:01.633Z,95943.00
2019-05-23T11:57:37.297Z,95934.00
2019-05-23T12:00:09.476Z,95923.00
2019-05-23T12:02:42.764Z,95922.00
2019-05-23T12:05:19.294Z,95930.00
2019-05-23T12:07:51.463Z,95925.00
2019-05-23T12:10:24.449Z,95923.00
2019-05-23T12:12:56.623Z,95927.00
2019-05-23T12:15:30.169Z,95930.00
2019-05-23T12:18:05.677Z,95923.00
2019-05-23T12:20:38.148Z,95922.00
2019-05-23T12:23:11.208Z,95925.00
2019-05-23T12:25:43.558Z,95924.00
2019-05-23T12:28:16.543Z,95916.00
2019-05-23T12:30:48.544Z,95931.00
2019-05-23T12:33:21.438Z,95926.00
2019-05-23T12:35:53.377Z,95925.00
2019-05-23T12:38:25.622Z,95924.00
2019-05-23T12:40:57.569Z,95916.00
2019-05-23T12:43:29.881Z,95916.00
2019-05-23T12:46:02.556Z,95914.00
2019-05-23T12:49:08.719Z,95907.00
2019-05-23T12:51:42.039Z,95903.00
2019-05-23T12:54:14.348Z,95901.00
2019-05-23T12:56:49.078Z,95896.00
2019-05-23T12:59:20.651Z,95892.00
2019-05-23T13:01:56.508Z,95897.00
2019-05-23T13:04:29.053Z,95899.00
2019-05-23T13:07:01.524Z,95890.00
2019-05-23T13:09:34.242Z,95890.00
2019-05-23T13:12:06.696Z,95886.00
2019-05-23T13:14:38.681Z,95886.00
2019-05-23T13:17:10.906Z,95894.00
2019-05-23T13:19:43.339Z,95887.00
2019-05-23T13:22:15.527Z,95891.00
2019-05-23T13:24:52.910Z,95888.00
2019-05-23T13:27:23.015Z,95884.00
2019-05-23T13:29:55.600Z,95885.00
2019-05-23T13:32:27.605Z,95878.00
2019-05-23T13:34:59.980Z,95882.00
2019-05-23T13:37:32.228Z,95882.00
2019-05-23T13:40:04.577Z,95874.00
2019-05-23T13:42:36.708Z,95877.00
2019-05-23T13:45:09.526Z,95868.00
2019-05-23T13:47:41.744Z,95875.00
2019-05-23T13:50:14.119Z,95873.00
2019-05-23T13:52:46.255Z,95874.00
2019-05-23T13:55:18.406Z,95876.00
2019-05-23T13:57:50.310Z,95873.00
2019-05-23T14:00:23.043Z,95869.00
2019-05-23T14:02:54.987Z,95876.00
2019-05-23T14:05:27.124Z,95871.00
2019-05-23T14:08:11.826Z,95876.00
2019-05-23T14:10:33.737Z,95861.00
2019-05-23T14:13:05.607Z,95861.00
2019-05-23T14:15:42.088Z,95867.00
2019-05-23T14:18:17.210Z,95863.00
2019-05-23T14:20:49.312Z,95861.00
2019-05-23T14:23:32.809Z,95858.00
2019-05-23T14:26:05.137Z,95852.00
2019-05-23T14:28:37.967Z,95861.00
2019-05-23T14:31:18.497Z,95850.00
2019-05-23T14:33:54.373Z,95860.00
2019-05-23T14:36:44.205Z,95856.00
2019-05-23T14:39:24.590Z,95852.00
2019-05-23T14:42:05.005Z,95857.00
2019-05-23T14:44:37.563Z,95851.00
2019-05-23T14:47:27.736Z,95848.00
2019-05-23T14:50:17.530Z,95838.00
2019-05-23T14:52:52.009Z,95838.00
2019-05-23T14:55:25.166Z,95835.00
2019-05-23T14:57:57.889Z,95832.00
2019-05-23T15:00:30.503Z,95828.00
2019-05-23T15:03:03.930Z,95824.00
2019-05-23T15:05:36.391Z,95824.00
2019-05-23T15:08:08.357Z,95822.00
2019-05-23T15:10:40.672Z,95815.00
2019-05-23T15:13:12.856Z,95811.00
2019-05-23T15:15:45.518Z,95814.00
2019-05-23T15:18:17.470Z,95814.00
2019-05-23T15:20:50.120Z,95810.00
2019-05-23T15:23:22.980Z,95809.00
2019-05-23T15:25:55.192Z,95804.00
2019-05-23T15:28:27.915Z,95806.00
2019-05-23T15:31:00.824Z,95807.00
2019-05-23T15:33:32.865Z,95809.00
2019-05-23T15:36:07.965Z,95803.00
2019-05-23T15:38:40.794Z,95804.00
2019-05-23T15:41:12.632Z,95798.00
2019-05-23T15:43:45.044Z,95805.00
2019-05-23T15:46:17.028Z,95800.00
2019-05-23T15:48:49.081Z,95791.00
2019-05-23T15:51:25.877Z,95793.00
2019-05-23T15:54:08.091Z,95790.00
2019-05-23T15:57:01.505Z,95788.00
2019-05-23T15:59:42.636Z,95788.00
2019-05-23T16:02:19.611Z,95791.00
2019-05-23T16:04:55.588Z,95787.00
2019-05-23T16:07:32.451Z,95860.00
2019-05-23T16:10:05.717Z,95790.00
2019-05-23T16:12:38.182Z,95785.00
2019-05-23T16:15:10.565Z,95790.00
2019-05-23T16:17:43.253Z,95784.00
2019-05-23T16:20:15.745Z,95782.00
2019-05-23T16:22:49.109Z,95782.00
2019-05-23T16:25:21.591Z,95781.00
2019-05-23T16:27:54.288Z,95778.00
2019-05-23T16:30:26.531Z,95780.00
2019-05-23T16:32:58.996Z,95783.00
2019-05-23T16:35:32.007Z,95788.00
2019-05-23T16:38:05.131Z,95788.00
2019-05-23T16:40:37.601Z,95785.00
2019-05-23T16:43:10.014Z,95793.00
2019-05-23T16:45:42.893Z,95788.00
2019-05-23T16:48:15.274Z,95782.00
2019-05-23T16:50:49.342Z,95786.00
2019-05-23T16:53:22.888Z,95778.00
2019-05-23T16:56:10.159Z,95790.00
2019-05-23T16:59:03.501Z,95781.00
2019-05-23T17:01:57.811Z,95784.00
2019-05-23T17:04:30.694Z,95790.00
2019-05-23T17:07:40.962Z,95785.00
2019-05-23T17:10:35.658Z,95792.00
2019-05-23T17:13:33.170Z,95787.00
2019-05-23T17:16:23.556Z,95789.00
2019-05-23T17:19:04.611Z,95776.00
2019-05-23T17:21:50.246Z,95789.00
2019-05-23T17:24:39.926Z,95785.00
2019-05-23T17:27:31.358Z,95778.00
2019-05-23T17:30:24.047Z,95787.00
2019-05-23T17:32:56.443Z,95783.00
2019-05-23T17:35:29.100Z,95781.00
2019-05-23T17:38:01.068Z,95784.00
2019-05-23T17:40:33.732Z,95783.00
2019-05-23T17:43:05.900Z,95780.00
2019-05-23T17:45:38.126Z,95775.00
2019-05-23T17:48:10.546Z,95775.00
2019-05-23T17:50:43.304Z,95773.00
2019-05-23T17:53:15.199Z,95775.00
2019-05-23T17:55:47.236Z,95778.00
2019-05-23T17:58:20.731Z,95779.00
2019-05-23T18:00:53.993Z,95770.00
2019-05-23T18:03:26.322Z,95771.00
2019-05-23T18:05:59.041Z,95765.00
2019-05-23T18:08:32.650Z,95769.00
2019-05-23T18:11:05.309Z,95769.00
2019-05-23T18:13:38.038Z,95763.00
2019-05-23T18:16:12.168Z,95768.00
2019-05-23T18:18:44.628Z,95772.00
2019-05-23T18:21:16.519Z,95781.00
2019-05-23T18:23:48.411Z,95777.00
2019-05-23T18:26:20.391Z,95793.00
2019-05-23T18:28:52.313Z,95794.00
2019-05-23T18:31:27.727Z,95797.00
2019-05-23T18:34:01.488Z,95798.00
2019-05-23T18:36:35.105Z,95792.00
2019-05-23T18:39:13.166Z,95794.00
2019-05-23T18:41:45.750Z,95786.00
2019-05-23T18:44:18.164Z,95792.00
2019-05-23T18:46:53.728Z,95793.00
2019-05-23T18:49:27.573Z,95794.00
2019-05-23T18:52:00.853Z,95793.00
2019-05-23T18:54:33.510Z,95796.00
2019-05-23T18:57:05.911Z,95802.00
2019-05-23T18:59:38.264Z,95801.00
2019-05-23T21:09:22.910Z,95823.00
2019-05-23T21:11:55.052Z,95829.00
2019-05-23T21:14:28.110Z,95827.00
2019-05-23T21:17:00.248Z,95837.00
2019-05-23T21:19:33.119Z,95826.00
2019-05-23T21:22:05.019Z,95830.00
2019-05-23T21:24:37.593Z,95819.00
2019-05-23T21:27:09.801Z,95813.00
2019-05-23T21:29:43.313Z,95825.00
2019-05-23T21:32:15.835Z,95828.00
2019-05-23T21:34:48.332Z,95816.00
2019-05-23T21:37:21.256Z,95821.00
2019-05-23T21:39:53.972Z,95817.00
2019-05-23T21:42:25.986Z,95818.00
2019-05-23T21:44:58.655Z,95818.00
2019-05-23T21:47:30.591Z,95819.00
2019-05-23T21:50:02.868Z,95821.00
2019-05-23T21:52:38.291Z,95821.00
2019-05-23T21:55:13.660Z,95822.00
2019-05-23T21:57:45.799Z,95817.00
2019-05-23T22:00:32.995Z,95824.00
2019-05-23T22:03:05.404Z,95814.00
2019-05-23T22:05:38.585Z,95819.00
2019-05-23T22:08:10.711Z,95818.00
2019-05-23T22:10:43.474Z,95814.00
2019-05-23T22:13:15.759Z,95818.00
2019-05-23T22:15:48.472Z,95819.00
2019-05-23T22:18:20.971Z,95815.00
2019-05-23T22:20:53.254Z,95813.00
2019-05-23T22:23:27.648Z,95812.00
2019-05-23T22:26:02.418Z,95812.00
2019-05-23T22:28:34.341Z,95802.00
2019-05-23T22:31:09.171Z,95802.00
2019-05-23T22:33:45.347Z,95805.00
2019-05-23T22:36:18.614Z,95807.00
2019-05-23T22:38:50.991Z,95809.00
2019-05-23T22:41:24.677Z,95809.00
2019-05-23T22:43:57.096Z,95799.00
2019-05-23T22:46:30.731Z,95808.00
2019-05-23T22:49:03.041Z,95798.00
2019-05-23T22:51:34.947Z,95801.00
2019-05-23T22:54:07.371Z,95795.00
2019-05-23T22:56:39.388Z,95792.00
2019-05-23T22:59:14.711Z,95788.00
2019-05-23T23:01:48.572Z,95789.00
2019-05-23T23:04:21.252Z,95789.00
2019-05-23T23:06:53.410Z,95789.00
2019-05-23T23:09:25.564Z,95791.00
2019-05-23T23:11:58.793Z,95784.00
2019-05-23T23:14:31.062Z,95779.00
2019-05-23T23:17:03.417Z,95779.00
2019-05-23T23:19:35.269Z,95776.00
2019-05-23T23:22:07.446Z,95775.00
2019-05-23T23:24:39.295Z,95777.00
2019-05-23T23:27:11.665Z,95773.00
2019-05-23T23:29:43.858Z,95775.00
2019-05-23T23:32:16.235Z,95770.00
2019-05-23T23:34:48.109Z,95773.00
2019-05-23T23:37:20.286Z,95765.00
2019-05-23T23:39:52.807Z,95771.00
2019-05-23T23:42:24.698Z,95768.00
2019-05-23T23:45:14.781Z,95766.00
2019-05-23T23:48:04.247Z,95771.00
2019-05-23T23:50:54.078Z,95768.00
2019-05-23T23:53:44.426Z,95766.00
2019-05-23T23:56:34.477Z,95758.00
2019-05-23T23:59:05.491Z,95757.00
